createdAt,value
2018-08-19T00:01:00.477Z,83.79
2018-08-19T00:03:30.111Z,84.58
2018-08-19T00:06:00.368Z,84.73
2018-08-19T00:08:29.878Z,84.89
2018-08-19T00:11:04.894Z,83.98
2018-08-19T00:13:35.615Z,83.99
2018-08-19T00:16:05.687Z,84.29
2018-08-19T00:18:36.790Z,85.20
2018-08-19T00:21:11.943Z,84.64
2018-08-19T00:23:46.642Z,84.98
2018-08-19T00:26:16.217Z,84.74
2018-08-19T00:28:45.729Z,85.55
2018-08-19T00:31:15.251Z,85.00
2018-08-19T00:33:44.727Z,84.26
2018-08-19T00:36:28.068Z,86.85
2018-08-19T00:38:57.728Z,86.79
2018-08-19T00:41:27.311Z,86.41
2018-08-19T00:43:56.912Z,85.49
2018-08-19T00:46:30.928Z,85.64
2018-08-19T00:49:01.384Z,85.99
2018-08-19T00:51:30.929Z,85.64
2018-08-19T00:54:01.020Z,85.29
2018-08-19T00:56:30.654Z,85.47
2018-08-19T00:59:00.229Z,86.49
2018-08-19T01:01:37.072Z,85.31
2018-08-19T01:04:09.163Z,84.68
2018-08-19T01:06:43.896Z,85.47
2018-08-19T01:09:13.565Z,85.96
2018-08-19T01:11:44.173Z,86.08
2018-08-19T01:14:15.516Z,86.10
2018-08-19T01:16:45.139Z,86.76
2018-08-19T01:19:15.966Z,86.32
2018-08-19T01:21:52.278Z,86.00
2018-08-19T01:24:22.032Z,85.77
2018-08-19T01:26:51.661Z,86.56
2018-08-19T01:29:34.099Z,86.46
2018-08-19T01:32:09.140Z,86.20
2018-08-19T01:34:39.791Z,85.86
2018-08-19T01:37:09.389Z,85.99
2018-08-19T01:39:39.683Z,85.91
2018-08-19T01:42:09.694Z,85.43
2018-08-19T01:44:40.538Z,85.22
2018-08-19T01:47:10.143Z,85.17
2018-08-19T01:49:39.561Z,85.46
2018-08-19T01:52:09.540Z,85.57
2018-08-19T01:54:39.121Z,84.81
2018-08-19T01:57:08.674Z,85.10
2018-08-19T01:59:38.260Z,85.59
2018-08-19T02:02:08.421Z,85.25
2018-08-19T02:04:46.527Z,85.21
2018-08-19T02:07:17.032Z,84.90
2018-08-19T02:10:04.808Z,85.10
2018-08-19T02:12:40.070Z,84.30
2018-08-19T02:15:10.675Z,85.38
2018-08-19T02:17:46.068Z,84.74
2018-08-19T02:20:16.053Z,85.28
2018-08-19T02:22:50.626Z,84.68
2018-08-19T02:25:20.485Z,84.68
2018-08-19T02:27:50.881Z,84.92
2018-08-19T02:30:20.451Z,84.40
2018-08-19T02:32:51.466Z,84.39
2018-08-19T02:35:20.888Z,84.51
2018-08-19T02:37:50.450Z,84.23
2018-08-19T02:40:35.411Z,85.77
2018-08-19T02:43:04.930Z,84.97
2018-08-19T02:45:34.585Z,85.16
2018-08-19T02:48:04.747Z,85.15
2018-08-19T02:50:36.584Z,85.03
2018-08-19T02:53:09.104Z,84.54
2018-08-19T02:55:38.655Z,84.83
2018-08-19T02:58:14.384Z,84.56
2018-08-19T03:00:44.648Z,84.97
2018-08-19T03:03:14.524Z,85.39
2018-08-19T03:05:48.139Z,85.25
2018-08-19T03:08:18.823Z,84.77
2018-08-19T03:10:49.404Z,84.36
2018-08-19T03:13:18.892Z,84.45
2018-08-19T03:15:49.279Z,84.75
2018-08-19T03:18:18.749Z,85.15
2018-08-19T03:20:48.906Z,84.35
2018-08-19T03:23:20.750Z,85.00
2018-08-19T03:25:51.410Z,85.72
2018-08-19T03:28:21.305Z,85.40
2018-08-19T03:31:08.782Z,85.72
2018-08-19T03:33:39.419Z,85.19
2018-08-19T03:36:09.943Z,86.19
2018-08-19T03:38:39.456Z,85.60
2018-08-19T03:41:09.303Z,85.87
2018-08-19T03:43:41.515Z,86.09
2018-08-19T03:46:15.740Z,86.03
2018-08-19T03:48:45.540Z,86.07
2018-08-19T03:51:15.580Z,85.76
2018-08-19T03:53:45.981Z,85.58
2018-08-19T03:56:22.636Z,85.39
2018-08-19T03:58:56.374Z,85.10
2018-08-19T04:01:44.728Z,85.67
2018-08-19T04:04:16.894Z,86.26
2018-08-19T04:06:46.504Z,86.12
2018-08-19T04:09:16.037Z,85.66
2018-08-19T04:11:53.052Z,85.49
2018-08-19T04:14:30.481Z,85.45
2018-08-19T04:17:01.273Z,85.48
2018-08-19T04:19:33.803Z,85.42
2018-08-19T04:22:05.990Z,85.74
2018-08-19T04:24:36.233Z,86.06
2018-08-19T04:27:10.613Z,85.88
2018-08-19T04:29:40.630Z,85.98
2018-08-19T04:32:19.085Z,85.04
2018-08-19T04:34:48.619Z,86.07
2018-08-19T04:37:18.308Z,85.81
2018-08-19T04:39:49.362Z,85.80
2018-08-19T04:42:20.427Z,85.80
2018-08-19T04:44:50.006Z,85.77
2018-08-19T04:47:31.092Z,85.72
2018-08-19T04:50:00.937Z,85.55
2018-08-19T04:52:32.520Z,85.05
2018-08-19T04:55:03.137Z,85.37
2018-08-19T04:57:33.177Z,85.18
2018-08-19T05:00:02.686Z,84.43
2018-08-19T05:02:32.242Z,84.78
2018-08-19T05:05:02.301Z,83.98
2018-08-19T05:07:31.816Z,84.19
2018-08-19T05:10:01.343Z,83.83
2018-08-19T05:12:31.661Z,82.99
2018-08-19T05:15:03.411Z,82.48
2018-08-19T05:17:34.633Z,82.80
2018-08-19T05:20:20.121Z,82.36
2018-08-19T05:22:49.652Z,81.83
2018-08-19T05:25:20.253Z,81.36
2018-08-19T05:27:55.832Z,81.00
2018-08-19T05:30:26.423Z,80.20
2018-08-19T05:33:02.048Z,80.70
2018-08-19T05:35:33.062Z,80.32
2018-08-19T05:38:04.809Z,79.55
2018-08-19T05:40:35.262Z,79.81
2018-08-19T05:43:04.881Z,79.63
2018-08-19T05:45:40.856Z,79.52
2018-08-19T05:48:12.131Z,78.73
2018-08-19T05:50:41.808Z,79.47
2018-08-19T05:53:12.711Z,78.09
2018-08-19T05:55:42.455Z,78.87
2018-08-19T05:58:11.780Z,77.94
2018-08-19T06:00:48.417Z,77.38
2018-08-19T06:03:17.876Z,77.02
2018-08-19T06:05:47.649Z,77.18
2018-08-19T06:08:17.407Z,76.19
2018-08-19T06:10:47.049Z,76.07
2018-08-19T06:13:16.669Z,76.42
2018-08-19T06:15:46.161Z,75.28
2018-08-19T06:18:15.750Z,75.39
2018-08-19T06:20:45.747Z,75.43
2018-08-19T06:23:16.056Z,75.67
2018-08-19T06:25:45.784Z,74.92
2018-08-19T06:28:15.852Z,74.74
2018-08-19T06:30:45.437Z,74.99
2018-08-19T06:33:14.955Z,75.18
2018-08-19T06:35:44.453Z,74.62
2018-08-19T06:38:15.045Z,75.23
2018-08-19T06:40:45.206Z,75.27
2018-08-19T06:43:16.501Z,73.88
2018-08-19T06:45:46.375Z,73.67
2018-08-19T06:48:18.041Z,74.17
2018-08-19T06:50:47.856Z,74.13
2018-08-19T06:53:22.712Z,74.24
2018-08-19T06:55:53.977Z,73.54
2018-08-19T06:58:24.381Z,73.47
2018-08-19T07:00:54.166Z,72.47
2018-08-19T07:03:27.790Z,72.41
2018-08-19T07:06:10.081Z,72.32
2018-08-19T07:08:39.976Z,71.74
2018-08-19T07:11:11.020Z,72.70
2018-08-19T07:13:40.715Z,71.46
2018-08-19T07:16:13.069Z,72.31
2018-08-19T07:18:42.687Z,71.11
2018-08-19T07:21:12.548Z,71.48
2018-08-19T07:23:42.902Z,71.62
2018-08-19T07:26:12.500Z,70.67
2018-08-19T07:28:42.166Z,70.43
2018-08-19T07:31:14.189Z,69.86
2018-08-19T07:33:44.307Z,69.70
2018-08-19T07:36:13.952Z,68.92
2018-08-19T07:38:45.753Z,68.72
2018-08-19T07:41:18.785Z,68.06
2018-08-19T07:43:48.523Z,68.82
2018-08-19T07:46:18.224Z,68.56
2018-08-19T07:48:47.934Z,67.58
2018-08-19T07:51:17.543Z,67.56
2018-08-19T07:53:47.992Z,67.23
2018-08-19T07:56:18.129Z,67.66
2018-08-19T07:58:53.029Z,67.83
2018-08-19T08:01:23.995Z,67.28
2018-08-19T08:03:53.592Z,66.86
2018-08-19T08:06:24.271Z,66.83
2018-08-19T08:08:53.881Z,67.29
2018-08-19T08:11:23.498Z,66.42
2018-08-19T08:13:53.390Z,65.48
2018-08-19T08:16:24.452Z,65.24
2018-08-19T08:18:54.198Z,66.87
2018-08-19T08:21:28.846Z,65.67
2018-08-19T08:23:58.498Z,64.91
2018-08-19T08:26:29.172Z,65.28
2018-08-19T08:29:05.179Z,65.68
2018-08-19T08:31:44.669Z,64.88
2018-08-19T08:34:14.344Z,65.40
2018-08-19T08:36:46.026Z,65.17
2018-08-19T08:39:19.102Z,65.94
2018-08-19T08:41:48.670Z,66.02
2018-08-19T08:44:18.268Z,63.99
2018-08-19T08:46:47.805Z,64.42
2018-08-19T08:49:32.467Z,65.18
2018-08-19T08:52:05.182Z,64.63
2018-08-19T08:54:36.156Z,64.03
2018-08-19T08:57:05.987Z,62.88
2018-08-19T08:59:36.885Z,63.59
2018-08-19T09:02:09.069Z,62.93
2018-08-19T09:04:39.376Z,62.21
2018-08-19T09:07:09.053Z,62.00
2018-08-19T09:09:44.033Z,63.71
2018-08-19T09:12:14.434Z,62.18
2018-08-19T09:14:44.625Z,62.42
2018-08-19T09:17:14.850Z,61.37
2018-08-19T09:19:44.833Z,62.06
2018-08-19T09:22:14.544Z,61.57
2018-08-19T09:24:46.306Z,62.38
2018-08-19T09:27:15.821Z,62.99
2018-08-19T09:29:46.634Z,62.81
2018-08-19T09:32:18.495Z,62.10
2018-08-19T09:34:48.185Z,60.76
2018-08-19T09:38:01.580Z,62.35
2018-08-19T09:40:32.762Z,63.90
2018-08-19T09:43:02.668Z,62.49
2018-08-19T09:45:33.763Z,62.42
2018-08-19T09:48:04.171Z,61.92
2018-08-19T09:50:34.838Z,61.09
2018-08-19T09:53:04.800Z,61.63
2018-08-19T09:55:51.590Z,60.55
2018-08-19T09:58:22.596Z,60.17
2018-08-19T10:00:57.788Z,59.15
2018-08-19T10:03:27.565Z,59.03
2018-08-19T10:05:57.230Z,58.63
2018-08-19T10:08:27.329Z,60.13
2018-08-19T10:10:57.221Z,59.17
2018-08-19T10:13:28.866Z,60.74
2018-08-19T10:15:59.002Z,60.29
2018-08-19T10:18:29.430Z,61.70
2018-08-19T10:21:05.898Z,62.15
2018-08-19T10:23:36.957Z,60.77
2018-08-19T10:26:07.282Z,62.76
2018-08-19T10:28:37.863Z,62.03
2018-08-19T10:31:18.174Z,62.33
2018-08-19T10:33:51.033Z,61.54
2018-08-19T10:36:21.184Z,60.47
2018-08-19T10:38:53.290Z,60.77
2018-08-19T10:41:25.650Z,59.55
2018-08-19T10:43:57.034Z,59.05
2018-08-19T10:46:27.461Z,59.27
2018-08-19T10:52:29.776Z,59.48
2018-08-19T10:55:00.965Z,59.03
2018-08-19T10:57:30.640Z,57.90
2018-08-19T11:00:00.372Z,58.05
2018-08-19T11:02:30.003Z,57.68
2018-08-19T11:05:00.814Z,59.69
2018-08-19T11:07:30.469Z,59.30
2018-08-19T11:10:24.661Z,59.60
2018-08-19T11:16:34.928Z,57.17
2018-08-19T11:19:06.115Z,56.77
2018-08-19T11:21:38.753Z,57.03
2018-08-19T11:24:29.049Z,56.08
2018-08-19T11:27:04.367Z,56.71
2018-08-19T11:32:08.280Z,54.71
2018-08-19T11:34:38.704Z,54.59
2018-08-19T11:37:09.380Z,55.28
2018-08-19T11:39:44.091Z,56.01
2018-08-19T11:42:14.256Z,54.70
2018-08-19T11:44:44.141Z,53.91
2018-08-19T11:47:16.334Z,52.45
2018-08-19T11:49:46.873Z,51.37
2018-08-19T11:52:19.589Z,50.55
2018-08-19T11:54:49.504Z,51.94
2018-08-19T11:57:21.342Z,52.61
2018-08-19T11:59:56.905Z,51.97
2018-08-19T12:02:26.769Z,50.29
2018-08-19T12:04:56.760Z,51.17
2018-08-19T12:07:26.751Z,50.14
2018-08-19T12:10:00.863Z,50.86
2018-08-19T12:12:47.663Z,50.78
2018-08-19T12:15:18.528Z,52.01
2018-08-19T12:17:48.227Z,51.89
2018-08-19T12:20:28.504Z,51.32
2018-08-19T12:22:58.360Z,50.54
2018-08-19T12:28:51.725Z,47.64
2018-08-19T12:31:23.512Z,47.41
2018-08-19T12:33:55.276Z,47.43
2018-08-19T12:36:24.770Z,44.92
2018-08-19T12:38:54.365Z,45.53
2018-08-19T12:41:24.312Z,42.64
2018-08-19T12:44:03.046Z,42.33
2018-08-19T12:46:34.058Z,38.71
2018-08-19T12:49:03.671Z,39.14
2018-08-19T12:51:35.573Z,41.02
2018-08-19T12:54:05.879Z,40.97
2018-08-19T12:56:42.263Z,40.96
2018-08-19T12:59:13.645Z,41.24
2018-08-19T13:01:43.322Z,42.66
2018-08-19T13:04:13.253Z,41.41
2018-08-19T13:07:00.405Z,39.83
2018-08-19T13:09:31.770Z,40.31
2018-08-19T13:12:05.452Z,39.20
2018-08-19T13:14:35.941Z,35.46
2018-08-19T13:17:05.802Z,36.61
2018-08-19T13:19:35.504Z,35.47
2018-08-19T13:22:05.150Z,35.96
2018-08-19T13:24:36.808Z,36.30
2018-08-19T13:27:07.392Z,36.57
2018-08-19T13:29:39.371Z,35.06
2018-08-19T13:32:09.249Z,34.66
2018-08-19T13:34:40.244Z,33.89
2018-08-19T13:37:10.903Z,33.02
2018-08-19T13:39:40.712Z,34.01
2018-08-19T13:42:11.422Z,32.15
2018-08-19T13:44:41.295Z,31.49
2018-08-19T13:47:11.908Z,29.95
2018-08-19T13:49:41.805Z,28.98
2018-08-19T13:52:12.137Z,28.16
2018-08-19T13:55:03.289Z,27.49
2018-08-19T13:57:33.124Z,28.22
2018-08-19T14:00:04.190Z,29.79
2018-08-19T14:02:33.716Z,30.53
2018-08-19T14:05:04.076Z,29.83
2018-08-19T14:07:34.369Z,27.66
2018-08-19T14:10:03.885Z,28.35
2018-08-19T14:12:33.474Z,28.91
2018-08-19T14:15:03.974Z,28.34
2018-08-19T14:17:35.883Z,28.94
2018-08-19T14:20:07.331Z,30.04
2018-08-19T14:22:39.773Z,30.07
2018-08-19T14:25:11.285Z,29.05
2018-08-19T14:27:41.109Z,28.93
2018-08-19T14:30:12.578Z,27.68
2018-08-19T14:32:44.208Z,28.82
2018-08-19T14:35:15.373Z,28.32
2018-08-19T14:37:45.025Z,28.16
2018-08-19T14:40:18.356Z,28.56
2018-08-19T14:42:48.665Z,29.84
2018-08-19T14:45:19.746Z,28.74
2018-08-19T14:47:50.170Z,27.95
2018-08-19T14:50:21.230Z,28.85
2018-08-19T14:52:51.824Z,29.22
2018-08-19T14:55:22.165Z,29.19
2018-08-19T14:57:52.442Z,29.40
2018-08-19T15:00:22.554Z,28.54
2018-08-19T15:02:53.020Z,27.30
2018-08-19T15:05:22.731Z,28.98
2018-08-19T15:07:53.094Z,26.64
2018-08-19T15:10:26.293Z,28.55
2018-08-19T15:12:56.964Z,27.37
2018-08-19T15:15:26.782Z,27.67
2018-08-19T15:18:00.944Z,27.24
2018-08-19T15:20:35.616Z,28.70
2018-08-19T15:23:20.840Z,30.11
2018-08-19T15:25:53.751Z,31.22
2018-08-19T15:28:23.492Z,29.97
2018-08-19T15:30:53.789Z,31.04
2018-08-19T15:33:23.713Z,27.16
2018-08-19T15:36:20.186Z,28.39
2018-08-19T15:38:49.789Z,28.29
2018-08-19T15:41:19.367Z,30.68
2018-08-19T15:43:49.197Z,31.77
2018-08-19T15:46:20.650Z,30.52
2018-08-19T15:48:53.997Z,30.83
2018-08-19T15:51:24.122Z,30.93
2018-08-19T15:53:54.319Z,31.56
2018-08-19T15:56:24.834Z,31.90
2018-08-19T15:58:54.596Z,29.59
2018-08-19T16:01:31.653Z,30.82
2018-08-19T16:04:06.532Z,32.31
2018-08-19T16:06:37.158Z,31.95
2018-08-19T16:09:11.473Z,33.67
2018-08-19T16:11:41.972Z,32.04
2018-08-19T16:14:18.587Z,31.53
2018-08-19T16:16:48.955Z,32.45
2018-08-19T16:19:19.788Z,31.68
2018-08-19T16:21:52.446Z,32.47
2018-08-19T16:24:24.738Z,30.72
2018-08-19T16:26:57.076Z,33.02
2018-08-19T16:29:27.295Z,35.33
2018-08-19T16:32:03.218Z,36.06
2018-08-19T16:34:33.333Z,36.36
2018-08-19T16:37:03.406Z,35.15
2018-08-19T16:39:33.859Z,35.36
2018-08-19T16:42:03.546Z,35.68
2018-08-19T16:44:33.350Z,35.43
2018-08-19T16:47:03.358Z,35.72
2018-08-19T16:49:32.967Z,35.11
2018-08-19T16:52:03.276Z,35.33
2018-08-19T16:54:34.412Z,35.39
2018-08-19T16:57:04.529Z,35.78
2018-08-19T16:59:34.112Z,36.26
2018-08-19T17:02:04.209Z,35.90
2018-08-19T17:04:37.548Z,35.68
2018-08-19T17:07:13.590Z,36.44
2018-08-19T17:09:44.606Z,36.42
2018-08-19T17:12:14.886Z,36.92
2018-08-19T17:14:44.726Z,39.14
2018-08-19T17:17:14.428Z,39.50
2018-08-19T17:19:48.231Z,38.67
2018-08-19T17:22:18.032Z,39.98
2018-08-19T17:24:47.880Z,39.95
2018-08-19T17:27:17.500Z,40.15
2018-08-19T17:29:47.579Z,41.34
2018-08-19T17:32:17.696Z,42.17
2018-08-19T17:34:47.485Z,43.03
2018-08-19T17:37:19.814Z,43.47
2018-08-19T17:39:49.886Z,44.50
2018-08-19T17:42:19.484Z,43.78
2018-08-19T17:44:49.389Z,43.90
2018-08-19T17:47:20.800Z,44.72
2018-08-19T17:49:51.620Z,45.29
2018-08-19T17:52:21.677Z,45.46
2018-08-19T17:54:53.353Z,46.34
2018-08-19T17:57:26.179Z,46.50
2018-08-19T18:00:18.317Z,46.43
2018-08-19T18:02:49.357Z,49.58
2018-08-19T18:05:19.396Z,52.41
2018-08-19T18:07:56.720Z,52.98
2018-08-19T18:10:28.069Z,53.75
2018-08-19T18:12:58.275Z,54.11
2018-08-19T18:15:28.555Z,55.15
2018-08-19T18:18:03.717Z,55.12
2018-08-19T18:20:40.353Z,55.01
2018-08-19T18:23:18.103Z,55.35
2018-08-19T18:25:53.601Z,55.73
2018-08-19T18:28:27.387Z,56.12
2018-08-19T18:31:12.736Z,56.40
2018-08-19T18:33:59.211Z,56.52
2018-08-19T18:36:31.664Z,56.70
2018-08-19T18:39:03.391Z,57.29
2018-08-19T18:41:36.756Z,56.70
2018-08-19T18:44:10.874Z,57.52
2018-08-19T18:46:56.423Z,57.71
2018-08-19T18:49:26.867Z,57.73
2018-08-19T18:52:03.878Z,57.84
2018-08-19T18:54:34.135Z,58.32
2018-08-19T18:57:08.458Z,58.20
2018-08-19T18:59:45.970Z,58.42
2018-08-19T19:02:20.113Z,59.86
2018-08-19T19:04:49.593Z,59.86
2018-08-19T19:07:19.611Z,59.65
2018-08-19T19:09:51.370Z,60.04
2018-08-19T19:12:23.693Z,60.75
2018-08-19T19:14:53.422Z,59.84
2018-08-19T19:17:23.088Z,59.99
2018-08-19T19:19:53.259Z,60.33
2018-08-19T19:22:23.231Z,61.05
2018-08-19T19:24:53.352Z,61.48
2018-08-19T19:27:24.764Z,61.09
2018-08-19T19:29:59.505Z,61.54
2018-08-19T19:32:29.173Z,61.77
2018-08-19T19:35:15.980Z,61.88
2018-08-19T19:37:45.612Z,61.76
2018-08-19T19:40:15.065Z,61.74
2018-08-19T19:42:46.091Z,62.18
2018-08-19T19:45:15.748Z,61.73
2018-08-19T19:47:45.448Z,62.67
2018-08-19T19:50:14.998Z,62.15
2018-08-19T19:52:49.498Z,62.57
2018-08-19T19:55:19.117Z,62.03
2018-08-19T19:57:48.771Z,62.26
2018-08-19T20:00:18.956Z,61.88
2018-08-19T20:02:48.968Z,62.61
2018-08-19T20:05:24.189Z,63.07
2018-08-19T20:07:54.571Z,63.42
2018-08-19T20:10:28.048Z,62.51
2018-08-19T20:12:58.645Z,63.20
2018-08-19T20:15:29.036Z,63.61
2018-08-19T20:17:58.676Z,63.67
2018-08-19T20:20:29.761Z,63.67
2018-08-19T20:25:57.346Z,64.30
2018-08-19T20:28:27.209Z,64.09
2018-08-19T20:30:57.176Z,63.79
2018-08-19T20:33:29.037Z,63.77
2018-08-19T20:35:58.871Z,64.28
2018-08-19T20:38:28.433Z,63.80
2018-08-19T20:40:58.138Z,64.43
2018-08-19T20:43:27.815Z,64.01
2018-08-19T20:45:57.577Z,64.62
2018-08-19T20:48:27.429Z,63.89
2018-08-19T20:50:57.099Z,63.85
2018-08-19T20:53:26.656Z,64.23
2018-08-19T20:55:56.273Z,64.74
2018-08-19T20:58:26.069Z,64.47
2018-08-19T21:00:55.738Z,64.89
2018-08-19T21:03:28.019Z,64.55
2018-08-19T21:05:57.738Z,64.81
2018-08-19T21:08:27.933Z,64.76
2018-08-19T21:10:58.325Z,65.30
2018-08-19T21:13:28.016Z,64.72
2018-08-19T21:15:57.828Z,64.75
2018-08-19T21:18:28.822Z,64.83
2018-08-19T21:20:58.833Z,65.06
2018-08-19T21:23:28.459Z,64.68
2018-08-19T21:26:00.116Z,64.92
2018-08-19T21:28:29.809Z,65.19
2018-08-19T21:31:00.338Z,65.57
2018-08-19T21:33:32.654Z,65.34
2018-08-19T21:36:02.447Z,64.50
2018-08-19T21:38:32.099Z,64.38
2018-08-19T21:41:04.459Z,64.80
2018-08-19T21:43:35.294Z,65.36
2018-08-19T21:46:05.943Z,64.59
2018-08-19T21:48:35.534Z,65.39
2018-08-19T21:51:05.241Z,64.90
2018-08-19T21:53:35.072Z,64.75
2018-08-19T21:56:05.682Z,65.58
2018-08-19T21:58:35.514Z,65.72
2018-08-19T22:01:09.696Z,65.05
2018-08-19T22:03:44.726Z,65.50
2018-08-19T22:06:14.589Z,65.50
2018-08-19T22:08:44.548Z,65.25
2018-08-19T22:11:14.592Z,65.79
2018-08-19T22:13:46.631Z,65.89
2018-08-19T22:16:16.269Z,65.67
2018-08-19T22:18:46.024Z,65.66
2018-08-19T22:21:45.202Z,65.88
2018-08-19T22:24:14.767Z,66.36
2018-08-19T22:26:44.298Z,66.48
2018-08-19T22:29:22.680Z,66.94
2018-08-19T22:31:53.738Z,66.87
2018-08-19T22:34:24.789Z,66.77
2018-08-19T22:36:54.722Z,66.73
2018-08-19T22:39:24.347Z,67.13
2018-08-19T22:41:55.166Z,66.80
2018-08-19T22:44:25.006Z,67.12
2018-08-19T22:46:54.672Z,67.10
2018-08-19T22:49:28.119Z,67.66
2018-08-19T22:52:19.534Z,67.94
2018-08-19T22:54:52.394Z,67.88
2018-08-19T22:57:22.383Z,67.97
2018-08-19T22:59:53.278Z,68.60
2018-08-19T23:02:24.249Z,68.51
2018-08-19T23:04:56.688Z,68.37
2018-08-19T23:07:27.268Z,68.61
2018-08-19T23:09:56.996Z,69.56
2018-08-19T23:12:27.501Z,69.10
2018-08-19T23:15:13.892Z,69.88
2018-08-19T23:17:43.925Z,70.28
2018-08-19T23:20:14.273Z,69.97
2018-08-19T23:22:44.462Z,70.47
2018-08-19T23:25:14.425Z,70.36
2018-08-19T23:27:44.378Z,70.48
2018-08-19T23:30:13.928Z,71.10
2018-08-19T23:32:43.353Z,71.19
2018-08-19T23:35:13.809Z,71.16
2018-08-19T23:37:43.785Z,71.42
2018-08-19T23:40:15.437Z,71.39
2018-08-19T23:42:44.996Z,72.01
2018-08-19T23:45:14.728Z,71.55
2018-08-19T23:47:44.381Z,71.50
2018-08-19T23:50:14.136Z,71.86
2018-08-19T23:52:44.551Z,72.58
2018-08-19T23:55:15.228Z,73.60
2018-08-19T23:58:04.623Z,73.94
